createdAt,value
2022-09-02T00:00:56.376Z,101600.25
2022-09-02T00:03:23.041Z,101598.59
2022-09-02T00:05:51.416Z,101595.88
2022-09-02T00:08:17.795Z,101595.88
2022-09-02T00:10:44.202Z,101585.28
2022-09-02T00:13:10.609Z,101586.09
2022-09-02T00:15:37.006Z,101589.63
2022-09-02T00:18:03.325Z,101586.09
2022-09-02T00:20:29.850Z,101591.53
2022-09-02T00:22:56.156Z,101580.06
2022-09-02T00:25:22.583Z,101581.13
2022-09-02T00:27:48.974Z,101579.84
2022-09-02T00:30:15.532Z,101587.38
2022-09-02T00:32:41.876Z,101585.72
2022-09-02T00:35:08.286Z,101583.84
2022-09-02T00:37:34.677Z,101584.91
2022-09-02T00:40:01.049Z,101584.91
2022-09-02T00:42:27.506Z,101585.72
2022-09-02T00:44:53.840Z,101577.03
2022-09-02T00:47:21.570Z,101578.66
2022-09-02T00:49:47.985Z,101571.84
2022-09-02T00:52:14.489Z,101575.38
2022-09-02T00:54:40.936Z,101578.91
2022-09-02T00:57:07.213Z,101578.91
2022-09-02T00:59:33.514Z,101574.56
2022-09-02T01:02:00.053Z,101572.91
2022-09-02T01:04:26.850Z,101572.91
2022-09-02T01:06:53.373Z,101578.34
2022-09-02T01:09:19.726Z,101573.97
2022-09-02T01:11:46.057Z,101572.06
2022-09-02T01:14:12.419Z,101571.25
2022-09-02T01:16:38.875Z,101567.47
2022-09-02T01:19:08.512Z,101567.72
2022-09-02T01:21:37.793Z,101567.72
2022-09-02T01:24:04.102Z,101566.91
2022-09-02T01:26:30.487Z,101563.38
2022-09-02T01:28:56.953Z,101568.81
2022-09-02T01:31:23.568Z,101567.13
2022-09-02T01:33:49.935Z,101562.53
2022-09-02T01:36:17.145Z,101561.94
2022-09-02T01:38:43.801Z,101570.94
2022-09-02T01:41:10.216Z,101570.09
2022-09-02T01:43:37.010Z,101567.66
2022-09-02T01:46:03.348Z,101572.81
2022-09-02T01:48:29.949Z,101568.22
2022-09-02T01:50:56.363Z,101568.69
2022-09-02T01:53:22.906Z,101571.16
2022-09-02T01:55:49.626Z,101566.81
2022-09-02T01:58:15.935Z,101564.34
2022-09-02T02:00:42.458Z,101569.78
2022-09-02T02:03:08.949Z,101570.63
2022-09-02T02:05:36.051Z,101564.34
2022-09-02T02:08:02.406Z,101564.59
2022-09-02T02:10:30.256Z,101562.72
2022-09-02T02:12:56.616Z,101563.53
2022-09-02T02:17:49.581Z,101560.25
2022-09-02T02:20:16.056Z,101559.41
2022-09-02T02:22:42.637Z,101552.34
2022-09-02T02:25:09.028Z,101553.41
2022-09-02T02:27:35.447Z,101550.69
2022-09-02T02:30:04.188Z,101555.88
2022-09-02T02:32:30.814Z,101554.25
2022-09-02T02:34:57.137Z,101547.16
2022-09-02T02:37:25.656Z,101548.00
2022-09-02T02:39:52.095Z,101549.88
2022-09-02T02:42:18.451Z,101550.94
2022-09-02T02:44:44.770Z,101546.34
2022-09-02T02:47:11.186Z,101549.88
2022-09-02T02:49:37.677Z,101548.22
2022-09-02T02:52:04.151Z,101547.41
2022-09-02T02:54:34.962Z,101549.31
2022-09-02T02:57:01.889Z,101547.66
2022-09-02T02:59:29.829Z,101551.19
2022-09-02T03:01:56.385Z,101547.66
2022-09-02T03:04:22.918Z,101542.25
2022-09-02T03:06:49.303Z,101546.00
2022-09-02T03:09:15.665Z,101550.38
2022-09-02T03:11:42.041Z,101548.72
2022-09-02T03:14:08.446Z,101548.72
2022-09-02T03:16:34.991Z,101546.84
2022-09-02T03:19:01.336Z,101547.09
2022-09-02T03:21:27.768Z,101549.00
2022-09-02T03:23:54.279Z,101550.88
2022-09-02T03:26:24.217Z,101549.78
2022-09-02T03:28:50.567Z,101551.44
2022-09-02T03:31:16.950Z,101546.53
2022-09-02T03:33:43.660Z,101542.97
2022-09-02T03:36:10.008Z,101542.97
2022-09-02T03:38:36.379Z,101544.84
2022-09-02T03:41:02.728Z,101541.34
2022-09-02T03:43:29.317Z,101542.13
2022-09-02T03:45:55.759Z,101544.06
2022-09-02T03:48:22.215Z,101538.63
2022-09-02T03:50:48.796Z,101540.50
2022-09-02T03:53:19.572Z,101543.22
2022-09-02T03:55:46.629Z,101539.69
2022-09-02T03:58:15.752Z,101544.28
2022-09-02T04:00:42.808Z,101535.31
2022-09-02T04:03:09.286Z,101541.56
2022-09-02T04:05:36.153Z,101538.03
2022-09-02T04:08:02.509Z,101539.09
2022-09-02T04:10:29.077Z,101538.31
2022-09-02T04:12:55.806Z,101535.31
2022-09-02T04:15:22.201Z,101535.59
2022-09-02T04:17:48.546Z,101535.84
2022-09-02T04:20:15.147Z,101534.75
2022-09-02T04:22:41.620Z,101536.88
2022-09-02T04:25:08.019Z,101539.34
2022-09-02T04:27:34.401Z,101539.34
2022-09-02T04:30:00.781Z,101543.13
2022-09-02T04:32:27.136Z,101538.78
2022-09-02T04:34:53.660Z,101537.72
2022-09-02T04:37:20.061Z,101534.16
2022-09-02T04:39:46.446Z,101535.00
2022-09-02T04:42:12.860Z,101534.16
2022-09-02T04:44:39.223Z,101541.50
2022-09-02T04:47:05.541Z,101534.44
2022-09-02T04:49:31.900Z,101535.25
2022-09-02T04:51:58.310Z,101537.16
2022-09-02T04:54:24.793Z,101537.94
2022-09-02T04:56:51.269Z,101537.94
2022-09-02T04:59:17.604Z,101539.88
2022-09-02T05:01:44.159Z,101543.38
2022-09-02T05:04:11.258Z,101534.69
2022-09-02T05:06:41.900Z,101535.72
2022-09-02T05:09:10.316Z,101550.13
2022-09-02T05:11:36.597Z,101546.59
2022-09-02T05:14:03.029Z,101543.63
2022-09-02T05:16:29.448Z,101551.22
2022-09-02T05:18:55.769Z,101549.56
2022-09-02T05:21:22.077Z,101548.50
2022-09-02T05:23:48.633Z,101547.41
2022-09-02T05:26:14.939Z,101545.69
2022-09-02T05:28:41.269Z,101544.72
2022-09-02T05:31:07.777Z,101544.53
2022-09-02T05:33:34.274Z,101545.75
2022-09-02T05:36:00.610Z,101544.53
2022-09-02T05:38:26.918Z,101547.34
2022-09-02T05:40:53.323Z,101544.88
2022-09-02T05:43:19.696Z,101547.59
2022-09-02T05:45:46.087Z,101544.31
2022-09-02T05:48:12.637Z,101550.53
2022-09-02T05:50:41.411Z,101553.84
2022-09-02T05:53:11.110Z,101558.69
2022-09-02T05:55:41.797Z,101560.31
2022-09-02T05:58:08.269Z,101560.31
2022-09-02T06:00:34.621Z,101552.44
2022-09-02T06:03:01.073Z,101558.59
2022-09-02T06:05:27.456Z,101557.75
2022-09-02T06:07:53.773Z,101556.53
2022-09-02T06:10:23.668Z,101554.34
2022-09-02T06:12:50.198Z,101553.78
2022-09-02T06:15:16.593Z,101560.75
2022-09-02T06:17:43.150Z,101553.94
2022-09-02T06:20:10.370Z,101550.38
2022-09-02T06:22:39.079Z,101543.31
2022-09-02T06:25:06.667Z,101547.66
2022-09-02T06:27:33.077Z,101544.94
2022-09-02T06:29:59.454Z,101541.91
2022-09-02T06:32:25.719Z,101551.31
2022-09-02T06:34:52.019Z,101546.03
2022-09-02T06:37:18.437Z,101543.06
2022-09-02T06:39:44.795Z,101546.03
2022-09-02T06:42:11.129Z,101554.00
2022-09-02T06:44:37.634Z,101553.31
2022-09-02T06:47:03.968Z,101551.44
2022-09-02T06:49:30.347Z,101552.69
2022-09-02T06:51:57.802Z,101553.69
2022-09-02T06:54:24.193Z,101557.28
2022-09-02T06:56:50.549Z,101545.88
2022-09-02T06:59:16.825Z,101553.78
2022-09-02T07:01:43.597Z,101559.75
2022-09-02T07:04:10.036Z,101557.66
2022-09-02T07:06:36.457Z,101554.47
2022-09-02T07:09:02.798Z,101562.84
2022-09-02T07:11:29.176Z,101550.09
2022-09-02T07:13:55.555Z,101562.03
2022-09-02T07:16:26.686Z,101562.03
2022-09-02T07:18:53.494Z,101560.59
2022-09-02T07:21:19.921Z,101563.53
2022-09-02T07:23:46.433Z,101564.13
2022-09-02T07:26:12.806Z,101570.75
2022-09-02T07:28:39.192Z,101567.09
2022-09-02T07:31:05.741Z,101560.38
2022-09-02T07:33:32.291Z,101567.44
2022-09-02T07:35:58.653Z,101563.66
2022-09-02T07:38:24.989Z,101553.88
2022-09-02T07:40:56.812Z,101558.47
2022-09-02T07:43:23.864Z,101559.06
2022-09-02T07:45:50.467Z,101555.75
2022-09-02T07:48:17.186Z,101556.19
2022-09-02T07:50:43.697Z,101561.88
2022-09-02T07:53:10.005Z,101552.34
2022-09-02T07:55:36.443Z,101556.91
2022-09-02T07:58:03.112Z,101555.38
2022-09-02T08:00:29.885Z,101556.19
2022-09-02T08:02:56.399Z,101554.31
2022-09-02T08:05:22.849Z,101564.34
2022-09-02T08:07:49.181Z,101562.19
2022-09-02T08:10:15.490Z,101563.03
2022-09-02T08:12:41.901Z,101559.25
2022-09-02T08:15:08.292Z,101557.34
2022-09-02T08:17:34.746Z,101558.19
2022-09-02T08:20:02.085Z,101552.50
2022-09-02T08:22:29.018Z,101555.22
2022-09-02T08:24:55.806Z,101552.25
2022-09-02T08:27:22.229Z,101556.28
2022-09-02T08:29:48.593Z,101557.34
2022-09-02T08:32:15.265Z,101559.00
2022-09-02T08:34:41.737Z,101551.09
2022-09-02T08:37:08.181Z,101558.75
2022-09-02T08:39:34.593Z,101556.03
2022-09-02T08:44:28.517Z,101560.63
2022-09-02T08:46:55.023Z,101556.03
2022-09-02T08:49:21.373Z,101555.47
2022-09-02T08:51:47.645Z,101557.13
2022-09-02T08:54:19.152Z,101556.03
2022-09-02T08:56:45.586Z,101559.59
2022-09-02T08:59:11.851Z,101559.59
2022-09-02T09:01:38.192Z,101556.03
2022-09-02T09:04:04.657Z,101554.16
2022-09-02T09:06:30.970Z,101554.16
2022-09-02T09:08:57.465Z,101551.19
2022-09-02T09:11:24.032Z,101554.97
2022-09-02T09:13:50.361Z,101547.19
2022-09-02T09:16:17.159Z,101544.94
2022-09-02T09:18:43.674Z,101542.25
2022-09-02T09:21:10.500Z,101545.75
2022-09-02T09:23:37.738Z,101545.75
2022-09-02T09:26:04.053Z,101545.28
2022-09-02T09:28:30.478Z,101544.13
2022-09-02T09:30:56.906Z,101538.69
2022-09-02T09:33:23.707Z,101528.19
2022-09-02T09:35:50.115Z,101536.81
2022-09-02T09:38:19.783Z,101532.78
2022-09-02T09:40:46.459Z,101532.78
2022-09-02T09:43:15.198Z,101528.19
2022-09-02T09:45:42.133Z,101527.69
2022-09-02T09:48:08.495Z,101518.63
2022-09-02T09:50:34.850Z,101519.47
2022-09-02T09:53:01.146Z,101523.00
2022-09-02T09:55:27.534Z,101521.94
2022-09-02T09:57:53.975Z,101518.38
2022-09-02T10:00:20.362Z,101516.50
2022-09-02T10:02:46.750Z,101514.63
2022-09-02T10:05:13.080Z,101513.78
2022-09-02T10:07:39.641Z,101510.00
2022-09-02T10:10:09.068Z,101509.75
2022-09-02T10:12:35.538Z,101512.47
2022-09-02T10:15:01.964Z,101508.13
2022-09-02T10:17:28.461Z,101493.47
2022-09-02T10:19:54.910Z,101495.63
2022-09-02T10:22:21.459Z,101506.50
2022-09-02T10:24:47.753Z,101497.50
2022-09-02T10:27:14.181Z,101494.81
2022-09-02T10:29:40.555Z,101503.78
2022-09-02T10:32:06.948Z,101493.97
2022-09-02T10:34:33.291Z,101495.63
2022-09-02T10:36:59.662Z,101483.13
2022-09-02T10:39:26.082Z,101492.91
2022-09-02T10:41:52.497Z,101489.38
2022-09-02T10:44:19.138Z,101482.63
2022-09-02T10:46:45.752Z,101491.25
2022-09-02T10:49:12.161Z,101495.88
2022-09-02T10:51:38.514Z,101493.16
2022-09-02T10:54:04.933Z,101490.44
2022-09-02T10:56:31.369Z,101491.00
2022-09-02T10:58:57.733Z,101492.09
2022-09-02T11:01:24.163Z,101483.94
2022-09-02T11:03:51.453Z,101490.78
2022-09-02T11:06:17.849Z,101482.63
2022-09-02T11:08:44.284Z,101479.91
2022-09-02T11:11:10.694Z,101469.91
2022-09-02T11:13:37.254Z,101476.72
2022-09-02T11:16:03.761Z,101474.25
2022-09-02T11:18:30.221Z,101475.88
2022-09-02T11:20:56.537Z,101470.22
2022-09-02T11:23:22.980Z,101473.75
2022-09-02T11:25:51.173Z,101473.47
2022-09-02T11:28:17.694Z,101476.72
2022-09-02T11:30:47.342Z,101479.19
2022-09-02T11:33:15.663Z,101468.34
2022-09-02T11:35:43.690Z,101462.91
2022-09-02T11:38:10.032Z,101468.34
2022-09-02T11:40:36.802Z,101467.25
2022-09-02T11:43:05.436Z,101461.81
2022-09-02T11:45:32.082Z,101462.91
2022-09-02T11:47:58.533Z,101463.72
2022-09-02T11:50:25.173Z,101448.25
2022-09-02T11:52:53.972Z,101456.41
2022-09-02T11:55:20.660Z,101456.16
2022-09-02T11:57:47.172Z,101452.38
2022-09-02T12:00:13.857Z,101449.41
2022-09-02T12:02:40.750Z,101449.41
2022-09-02T12:05:08.538Z,101443.97
2022-09-02T12:07:35.561Z,101445.63
2022-09-02T12:10:01.981Z,101435.31
2022-09-02T12:12:28.732Z,101435.91
2022-09-02T12:14:55.710Z,101433.19
2022-09-02T12:17:22.298Z,101427.78
2022-09-02T12:19:48.929Z,101430.72
2022-09-02T12:22:15.465Z,101415.84
2022-09-02T12:24:41.846Z,101406.88
2022-09-02T12:27:08.199Z,101409.59
2022-09-02T12:29:34.585Z,101409.09
2022-09-02T12:32:00.968Z,101405.31
2022-09-02T12:34:27.437Z,101405.31
2022-09-02T12:36:53.776Z,101397.19
2022-09-02T12:39:20.293Z,101401.53
2022-09-02T12:41:46.947Z,101393.94
2022-09-02T12:44:14.279Z,101390.16
2022-09-02T12:46:40.977Z,101388.44
2022-09-02T12:49:07.506Z,101385.25
2022-09-02T12:51:33.809Z,101396.09
2022-09-02T12:54:02.528Z,101403.16
2022-09-02T12:56:29.098Z,101396.91
2022-09-02T12:59:00.128Z,101402.34
2022-09-02T13:01:28.339Z,101390.66
2022-09-02T13:03:54.940Z,101381.69
2022-09-02T13:06:21.364Z,101384.41
2022-09-02T13:08:48.709Z,101372.75
2022-09-02T13:11:15.055Z,101374.63
2022-09-02T13:13:41.571Z,101375.47
2022-09-02T13:16:08.181Z,101362.69
2022-09-02T13:18:44.843Z,101368.97
2022-09-02T13:21:11.288Z,101363.53
2022-09-02T13:23:37.607Z,101364.63
2022-09-02T13:26:03.992Z,101366.25
2022-09-02T13:28:30.504Z,101362.94
2022-09-02T13:30:56.994Z,101364.63
2022-09-02T13:33:23.431Z,101358.34
2022-09-02T13:35:49.970Z,101358.34
2022-09-02T13:38:18.583Z,101360.22
2022-09-02T13:40:47.378Z,101361.91
2022-09-02T13:43:13.738Z,101368.38
2022-09-02T13:45:40.561Z,101362.16
2022-09-02T13:48:06.870Z,101356.47
2022-09-02T13:50:33.301Z,101358.09
2022-09-02T13:55:46.255Z,101351.84
2022-09-02T13:58:12.644Z,101359.97
2022-09-02T14:00:39.191Z,101355.38
2022-09-02T14:03:06.269Z,101351.84
2022-09-02T14:05:32.911Z,101351.03
2022-09-02T14:07:59.314Z,101346.41
2022-09-02T14:10:26.193Z,101335.56
2022-09-02T14:12:52.830Z,101330.97
2022-09-02T14:15:19.176Z,101333.47
2022-09-02T14:17:45.679Z,101329.63
2022-09-02T14:20:12.262Z,101335.88
2022-09-02T14:22:38.586Z,101327.72
2022-09-02T14:25:05.055Z,101322.03
2022-09-02T14:27:31.510Z,101330.19
2022-09-02T14:29:57.952Z,101327.22
2022-09-02T14:32:24.456Z,101322.63
2022-09-02T14:34:50.979Z,101321.56
2022-09-02T14:37:17.332Z,101319.66
2022-09-02T14:39:43.985Z,101317.75
2022-09-02T14:42:10.404Z,101319.38
2022-09-02T14:44:36.873Z,101319.13
2022-09-02T14:47:03.187Z,101319.97
2022-09-02T14:49:29.966Z,101312.66
2022-09-02T14:51:56.392Z,101318.88
2022-09-02T14:54:22.856Z,101314.28
2022-09-02T14:56:49.186Z,101306.94
2022-09-02T14:59:15.496Z,101303.19
2022-09-02T15:01:42.086Z,101307.53
2022-09-02T15:04:08.597Z,101307.28
2022-09-02T15:06:35.016Z,101305.38
2022-09-02T15:09:01.589Z,101301.84
2022-09-02T15:11:27.878Z,101299.94
2022-09-02T15:13:54.261Z,101303.50
2022-09-02T15:16:20.566Z,101295.34
2022-09-02T15:18:46.978Z,101304.03
2022-09-02T15:21:13.412Z,101304.03
2022-09-02T15:23:41.240Z,101300.53
2022-09-02T15:26:07.690Z,101304.63
2022-09-02T15:28:34.106Z,101295.66
2022-09-02T15:31:00.663Z,101300.28
2022-09-02T15:33:27.097Z,101302.75
2022-09-02T15:35:53.450Z,101302.75
2022-09-02T15:38:19.890Z,101305.16
2022-09-02T15:40:46.352Z,101303.28
2022-09-02T15:43:12.722Z,101300.81
2022-09-02T15:45:39.023Z,101298.69
2022-09-02T15:48:05.433Z,101288.88
2022-09-02T15:50:32.011Z,101298.69
2022-09-02T15:52:58.529Z,101301.16
2022-09-02T15:55:29.526Z,101293.00
2022-09-02T15:57:56.171Z,101298.69
2022-09-02T16:00:22.500Z,101297.59
2022-09-02T16:02:48.961Z,101296.78
2022-09-02T16:05:15.914Z,101293.25
2022-09-02T16:07:42.301Z,101286.16
2022-09-02T16:10:09.458Z,101291.59
2022-09-02T16:12:35.800Z,101293.50
2022-09-02T16:15:02.272Z,101295.41
2022-09-02T16:17:29.285Z,101294.84
2022-09-02T16:19:55.924Z,101294.84
2022-09-02T16:22:22.610Z,101291.81
2022-09-02T16:24:48.970Z,101294.50
2022-09-02T16:27:15.312Z,101296.44
2022-09-02T16:29:41.647Z,101293.97
2022-09-02T16:32:24.513Z,101289.38
2022-09-02T16:34:55.412Z,101284.97
2022-09-02T16:37:21.706Z,101290.41
2022-09-02T16:39:48.048Z,101291.00
2022-09-02T16:42:14.460Z,101284.44
2022-09-02T16:44:40.821Z,101283.84
2022-09-02T16:47:07.496Z,101280.78
2022-09-02T16:49:34.074Z,101286.03
2022-09-02T16:52:00.476Z,101276.63
2022-09-02T16:54:31.268Z,101282.78
2022-09-02T16:56:58.759Z,101283.81
2022-09-02T16:59:25.190Z,101280.03
2022-09-02T17:01:51.763Z,101271.25
2022-09-02T17:04:18.204Z,101273.38
2022-09-02T17:06:44.577Z,101273.13
2022-09-02T17:09:10.878Z,101273.31
2022-09-02T17:11:37.252Z,101275.06
2022-09-02T17:14:03.716Z,101278.50
2022-09-02T17:16:30.056Z,101278.78
2022-09-02T17:18:56.592Z,101278.19
2022-09-02T17:21:22.981Z,101282.44
2022-09-02T17:23:49.525Z,101283.38
2022-09-02T17:26:15.842Z,101284.31
2022-09-02T17:28:42.277Z,101286.03
2022-09-02T17:31:08.831Z,101284.47
2022-09-02T17:33:35.307Z,101275.50
2022-09-02T17:36:01.665Z,101284.47
2022-09-02T17:38:28.037Z,101287.41
2022-09-02T17:40:54.641Z,101291.22
2022-09-02T17:43:21.090Z,101295.22
2022-09-02T17:45:47.473Z,101294.72
2022-09-02T17:48:35.755Z,101292.50
2022-09-02T17:51:00.771Z,101284.94
2022-09-02T17:53:30.068Z,101293.09
2022-09-02T17:55:56.622Z,101283.81
2022-09-02T17:58:23.113Z,101285.13
2022-09-02T18:00:49.508Z,101294.34
2022-09-02T18:03:20.261Z,101289.22
2022-09-02T18:05:48.600Z,101293.59
2022-09-02T18:08:14.912Z,101295.50
2022-09-02T18:10:41.279Z,101290.31
2022-09-02T18:13:07.592Z,101292.19
2022-09-02T18:15:34.005Z,101293.59
2022-09-02T18:18:01.563Z,101298.22
2022-09-02T18:20:28.233Z,101305.25
2022-09-02T18:22:54.836Z,101305.81
2022-09-02T18:25:21.185Z,101302.31
2022-09-02T18:27:47.672Z,101299.59
2022-09-02T18:30:17.114Z,101308.53
2022-09-02T18:32:43.506Z,101308.78
2022-09-02T18:35:09.886Z,101310.44
2022-09-02T18:37:36.566Z,101312.56
2022-09-02T18:40:03.481Z,101317.75
2022-09-02T18:42:30.315Z,101318.59
2022-09-02T18:44:56.617Z,101320.94
2022-09-02T18:47:22.997Z,101316.34
2022-09-02T18:49:49.565Z,101314.47
2022-09-02T18:52:15.993Z,101322.03
2022-09-02T18:54:42.333Z,101326.13
2022-09-02T18:57:09.010Z,101320.94
2022-09-02T18:59:35.416Z,101320.94
2022-09-02T19:02:01.869Z,101331.81
2022-09-02T19:04:29.559Z,101324.50
2022-09-02T19:06:56.196Z,101331.81
2022-09-02T19:09:22.640Z,101325.81
2022-09-02T19:11:49.016Z,101319.81
2022-09-02T19:14:15.695Z,101318.13
2022-09-02T19:16:42.354Z,101331.69
2022-09-02T19:19:08.819Z,101328.19
2022-09-02T19:21:35.196Z,101330.56
2022-09-02T19:24:01.569Z,101328.59
2022-09-02T19:26:27.945Z,101330.81
2022-09-02T19:28:54.256Z,101333.50
2022-09-02T19:31:20.849Z,101339.47
2022-09-02T19:33:47.456Z,101339.94
2022-09-02T19:36:13.886Z,101341.03
2022-09-02T19:38:40.209Z,101341.81
2022-09-02T19:41:06.851Z,101333.38
2022-09-02T19:43:33.222Z,101341.50
2022-09-02T19:45:59.776Z,101337.97
2022-09-02T19:48:26.346Z,101344.16
2022-09-02T19:50:52.853Z,101335.53
2022-09-02T19:53:19.241Z,101331.16
2022-09-02T19:55:45.811Z,101327.13
2022-09-02T19:58:12.097Z,101330.50
2022-09-02T20:00:40.083Z,101337.88
2022-09-02T20:03:06.487Z,101337.13
2022-09-02T20:05:32.825Z,101337.22
2022-09-02T20:07:59.292Z,101344.31
2022-09-02T20:10:27.847Z,101339.44
2022-09-02T20:12:54.650Z,101337.31
2022-09-02T20:15:20.986Z,101341.19
2022-09-02T20:17:47.619Z,101340.91
2022-09-02T20:20:14.016Z,101338.78
2022-09-02T20:22:40.622Z,101337.94
2022-09-02T20:25:06.922Z,101336.56
2022-09-02T20:27:33.437Z,101344.19
2022-09-02T20:29:59.776Z,101340.41
2022-09-02T20:32:26.258Z,101341.25
2022-09-02T20:34:52.564Z,101347.47
2022-09-02T20:37:19.305Z,101344.50
2022-09-02T20:39:45.713Z,101346.41
2022-09-02T20:42:12.158Z,101345.34
2022-09-02T20:44:38.474Z,101339.91
2022-09-02T20:47:04.982Z,101341.53
2022-09-02T20:49:31.456Z,101345.91
2022-09-02T20:51:58.277Z,101351.31
2022-09-02T20:54:24.613Z,101349.69
2022-09-02T20:56:50.960Z,101355.66
2022-09-02T20:59:17.408Z,101360.28
2022-09-02T21:01:43.806Z,101356.50
2022-09-02T21:04:10.309Z,101361.09
2022-09-02T21:06:36.794Z,101357.59
2022-09-02T21:09:03.753Z,101359.41
2022-09-02T21:11:30.338Z,101355.22
2022-09-02T21:13:56.663Z,101358.75
2022-09-02T21:16:23.011Z,101357.69
2022-09-02T21:18:49.469Z,101365.59
2022-09-02T21:21:15.946Z,101357.19
2022-09-02T21:23:42.542Z,101366.16
2022-09-02T21:26:08.933Z,101370.50
2022-09-02T21:28:35.695Z,101368.63
2022-09-02T21:31:02.170Z,101367.53
2022-09-02T21:33:28.541Z,101369.16
2022-09-02T21:35:55.010Z,101366.47
2022-09-02T21:38:21.738Z,101359.41
2022-09-02T21:40:48.347Z,101362.09
2022-09-02T21:43:14.678Z,101370.84
2022-09-02T21:45:41.126Z,101362.09
2022-09-02T21:48:07.498Z,101366.47
2022-09-02T21:50:33.812Z,101371.88
2022-09-02T21:53:00.228Z,101363.75
2022-09-02T21:55:26.645Z,101370.00
2022-09-02T21:57:54.664Z,101356.44
2022-09-02T22:00:21.993Z,101362.94
2022-09-02T22:02:48.532Z,101364.81
2022-09-02T22:05:14.910Z,101363.75
2022-09-02T22:07:41.877Z,101362.94
2022-09-02T22:10:08.193Z,101371.88
2022-09-02T22:12:34.617Z,101361.03
2022-09-02T22:15:01.169Z,101364.81
2022-09-02T22:17:27.736Z,101361.28
2022-09-02T22:19:54.976Z,101364.81
2022-09-02T22:22:21.334Z,101357.75
2022-09-02T22:24:47.782Z,101364.00
2022-09-02T22:27:14.101Z,101358.56
2022-09-02T22:29:40.473Z,101368.84
2022-09-02T22:32:06.823Z,101369.69
2022-09-02T22:34:33.177Z,101359.63
2022-09-02T22:36:59.540Z,101359.63
2022-09-02T22:39:26.093Z,101364.25
2022-09-02T22:41:52.546Z,101369.69
2022-09-02T22:44:18.870Z,101358.84
2022-09-02T22:46:45.445Z,101368.84
2022-09-02T22:49:11.829Z,101358.00
2022-09-02T22:51:38.686Z,101360.72
2022-09-02T22:54:05.017Z,101361.78
2022-09-02T22:56:31.544Z,101361.78
2022-09-02T22:58:57.952Z,101357.19
2022-09-02T23:01:24.567Z,101362.59
2022-09-02T23:03:51.399Z,101360.16
2022-09-02T23:06:17.866Z,101363.69
2022-09-02T23:08:44.189Z,101350.94
2022-09-02T23:11:10.950Z,101350.94
2022-09-02T23:13:37.304Z,101347.66
2022-09-02T23:16:03.795Z,101347.66
2022-09-02T23:18:31.208Z,101346.84
2022-09-02T23:20:57.540Z,101346.00
2022-09-02T23:23:24.001Z,101349.56
2022-09-02T23:25:51.181Z,101340.34
2022-09-02T23:28:17.592Z,101340.59
2022-09-02T23:30:43.953Z,101341.41
2022-09-02T23:33:15.378Z,101336.00
2022-09-02T23:35:42.088Z,101333.28
2022-09-02T23:38:08.476Z,101336.25
2022-09-02T23:40:34.848Z,101331.63
2022-09-02T23:43:01.289Z,101335.16
2022-09-02T23:45:27.975Z,101336.25
2022-09-02T23:47:54.345Z,101341.41
2022-09-02T23:50:20.793Z,101330.81
2022-09-02T23:52:47.184Z,101330.81
2022-09-02T23:55:13.599Z,101331.63
2022-09-02T23:57:39.996Z,101321.84
